Time;durP1;ratioP1;P1;durP2;ratioP2;P2;SDS_P1;SDS_P2;PMS_P1;PMS_P2;Temp;Humidity;BMP_temperature;BMP_pressure;BME280_temperature;BME280_humidity;BME280_pressure;Samples;Min_cycle;Max_cycle;Signal;HPM_P1;HPM_P2
2022/03/07 00:00:52;;;;;;;19.60;16.80;;;;;;;3.42;71.54;101686.88;2089803;28;20646;-69
2022/03/07 00:01:53;;;;;;;18.77;16.77;;;;;;;2.05;71.15;101483.13;2090066;28;20173;-69
2022/03/07 00:02:54;;;;;;;17.83;15.93;;;;;;;2.94;71.56;101651.75;2090120;28;20176;-69
2022/03/07 00:03:55;;;;;;;18.07;15.73;;;;;;;3.33;71.17;101683.56;2089646;28;20176;-69
2022/03/07 00:04:55;;;;;;;18.55;16.55;;;;;;;3.33;71.25;101698.03;2089297;28;20182;-69
2022/03/07 00:05:56;;;;;;;19.47;17.13;;;;;;;3.30;70.86;101685.06;2088894;28;20191;-69
2022/03/07 00:06:56;;;;;;;18.33;16.43;;;;;;;3.40;71.58;101690.00;2089250;28;20383;-69
2022/03/07 00:07:57;;;;;;;18.50;16.47;;;;;;;3.20;71.21;101641.78;2097093;28;20644;-69
2022/03/07 00:08:58;;;;;;;18.27;16.13;;;;;;;3.45;71.00;101706.13;2089803;28;20355;-69
2022/03/07 00:09:59;;;;;;;19.05;16.17;;;;;;;3.40;71.17;101686.44;2090086;28;20226;-69
2022/03/07 00:10:59;;;;;;;17.87;15.80;;;;;;;2.46;70.58;101529.81;2089924;28;20188;-69
2022/03/07 00:12:00;;;;;;;17.33;15.43;;;;;;;3.38;70.50;101688.75;2089322;28;20631;-69
2022/03/07 00:13:00;;;;;;;18.87;16.60;;;;;;;3.34;70.51;101679.66;2089243;28;20206;-69
2022/03/07 00:14:01;;;;;;;18.70;16.70;;;;;;;3.23;71.05;101684.91;2089455;28;20172;-69
2022/03/07 00:15:04;;;;;;;18.52;15.95;;;;;;;3.24;70.74;101677.47;2089959;28;20179;-69
2022/03/07 00:16:05;;;;;;;18.48;16.08;;;;;;;3.23;70.62;101679.41;2080696;28;20264;-70
2022/03/07 00:17:05;;;;;;;17.33;15.47;;;;;;;3.27;70.96;101680.28;2081024;28;20173;-69
2022/03/07 00:18:06;;;;;;;18.33;16.43;;;;;;;3.34;70.46;101683.19;2081118;28;20647;-69
2022/03/07 00:19:06;;;;;;;17.63;15.73;;;;;;;3.00;70.59;101617.47;2081726;28;20180;-69
2022/03/07 00:20:08;;;;;;;19.33;16.13;;;;;;;3.27;70.55;101666.59;2081777;28;20248;-69
2022/03/07 00:21:09;;;;;;;17.35;15.55;;;;;;;3.04;70.50;101635.53;2081551;28;20173;-69
2022/03/07 00:22:10;;;;;;;18.05;16.15;;;;;;;3.27;70.65;101672.06;2081752;28;20204;-69
2022/03/07 00:23:11;;;;;;;18.67;15.90;;;;;;;3.20;71.07;101676.59;2080890;28;20181;-69
2022/03/07 00:24:12;;;;;;;18.60;16.60;;;;;;;3.22;71.20;101666.06;2080644;28;20179;-69
2022/03/07 00:25:12;;;;;;;18.13;16.23;;;;;;;3.31;71.16;101678.44;2081540;28;20177;-69
2022/03/07 00:26:13;;;;;;;17.63;15.60;;;;;;;3.29;70.57;101674.47;2081409;28;20207;-69
2022/03/07 00:27:13;;;;;;;18.00;16.10;;;;;;;3.23;70.68;101665.72;2089663;28;20196;-69
2022/03/07 00:28:16;;;;;;;16.70;14.90;;;;;;;2.84;70.83;101628.47;2089465;28;20173;-69
2022/03/07 00:29:17;;;;;;;17.20;15.40;;;;;;;3.39;70.61;101677.41;2089863;28;20165;-69
2022/03/07 00:30:19;;;;;;;17.27;15.48;;;;;;;2.79;70.55;101582.19;2089738;28;20177;-69
2022/03/07 00:31:21;;;;;;;18.40;16.40;;;;;;;3.45;70.19;101673.25;2089904;28;20171;-69
2022/03/07 00:32:21;;;;;;;17.05;15.23;;;;;;;2.17;70.35;101472.84;2089831;28;20179;-69
2022/03/07 00:33:22;;;;;;;17.63;15.77;;;;;;;3.47;70.40;101701.09;2089763;28;20199;-69
2022/03/07 00:34:22;;;;;;;18.97;16.07;;;;;;;3.36;70.14;101655.44;2089345;28;20596;-69
2022/03/07 00:35:23;;;;;;;17.43;15.53;;;;;;;3.42;70.01;101673.16;2089825;28;20184;-69
2022/03/07 00:36:25;;;;;;;17.37;15.47;;;;;;;2.85;70.75;101597.19;2089471;28;20172;-69
2022/03/07 00:37:26;;;;;;;17.08;15.27;;;;;;;2.65;70.73;101559.16;2089344;28;20355;-69
2022/03/07 00:38:27;;;;;;;17.75;15.85;;;;;;;3.41;70.66;101658.69;2089652;28;20720;-69
2022/03/07 00:39:27;;;;;;;16.10;14.50;;;;;;;3.54;70.99;101673.06;2089672;28;20590;-69
2022/03/07 00:40:28;;;;;;;16.60;14.47;;;;;;;3.39;70.38;101655.50;2089677;28;20263;-69
2022/03/07 00:41:28;;;;;;;16.87;15.03;;;;;;;2.48;70.28;101502.91;2089522;28;20249;-69
2022/03/07 00:42:29;;;;;;;15.60;13.67;;;;;;;2.36;70.39;101486.59;2089259;28;20175;-69
2022/03/07 00:43:30;;;;;;;15.87;14.17;;;;;;;3.49;70.17;101665.91;2089792;28;20187;-69
2022/03/07 00:44:30;;;;;;;16.37;14.60;;;;;;;3.32;70.25;101665.50;2089186;28;20188;-69
2022/03/07 00:45:31;;;;;;;16.20;14.50;;;;;;;3.13;70.91;101649.06;2089773;28;20191;-69
2022/03/07 00:46:31;;;;;;;16.83;14.40;;;;;;;3.25;70.62;101668.91;2089240;28;20251;-69
2022/03/07 00:47:32;;;;;;;15.93;14.23;;;;;;;3.29;70.54;101652.56;2089162;28;20563;-69
2022/03/07 00:48:32;;;;;;;16.03;14.33;;;;;;;3.05;70.23;101620.72;2089837;28;20230;-69
2022/03/07 00:49:33;;;;;;;15.60;13.97;;;;;;;3.20;70.35;101655.50;2089799;28;20176;-69
2022/03/07 00:50:33;;;;;;;16.53;13.73;;;;;;;2.18;70.34;101503.75;2089677;28;20259;-68
2022/03/07 00:51:34;;;;;;;15.77;13.70;;;;;;;2.94;71.09;101649.00;2089540;28;20235;-69
2022/03/07 00:52:34;;;;;;;15.93;14.27;;;;;;;3.03;71.57;101655.88;2089704;28;20172;-69
2022/03/07 00:53:35;;;;;;;16.17;14.37;;;;;;;2.97;71.15;101649.09;2089522;28;20177;-69
2022/03/07 00:54:36;;;;;;;18.53;14.53;;;;;;;2.99;71.24;101646.78;2088975;28;20180;-69
2022/03/07 00:55:38;;;;;;;17.77;15.07;;;;;;;3.04;71.34;101662.16;2089228;28;20168;-69
2022/03/07 00:56:38;;;;;;;15.55;13.82;;;;;;;2.75;71.40;101603.22;2089098;28;20658;-69
2022/03/07 00:57:39;;;;;;;16.10;14.40;;;;;;;3.16;71.94;101648.34;2089040;28;20535;-69
2022/03/07 00:58:39;;;;;;;16.87;13.90;;;;;;;3.19;71.26;101650.38;2089687;28;20180;-69
2022/03/07 00:59:40;;;;;;;15.63;13.87;;;;;;;3.26;71.17;101648.56;2089633;28;20554;-69
2022/03/07 01:00:40;;;;;;;15.10;13.47;;;;;;;3.29;70.99;101650.59;2089391;28;20184;-69
2022/03/07 01:01:41;;;;;;;15.97;14.27;;;;;;;3.34;71.21;101655.00;2088988;28;20176;-69
2022/03/07 01:02:41;;;;;;;15.63;13.90;;;;;;;3.39;71.22;101650.03;2088958;28;20267;-69
2022/03/07 01:03:42;;;;;;;15.10;13.13;;;;;;;3.38;70.87;101653.16;2089318;28;20558;-69
2022/03/07 01:04:42;;;;;;;15.67;13.93;;;;;;;3.26;70.82;101654.06;2089706;28;20559;-69
2022/03/07 01:05:44;;;;;;;17.03;14.30;;;;;;;3.14;71.13;101640.47;2089557;28;20169;-69
2022/03/07 01:06:44;;;;;;;15.05;13.43;;;;;;;3.26;71.45;101656.00;2089049;28;20269;-69
2022/03/07 01:07:46;;;;;;;17.67;14.47;;;;;;;3.32;70.91;101658.09;2088950;28;20775;-69
2022/03/07 01:08:46;;;;;;;15.55;13.93;;;;;;;2.34;70.67;101485.34;2089403;28;20258;-69
2022/03/07 01:09:47;;;;;;;16.27;13.87;;;;;;;3.43;70.51;101652.84;2089770;28;20188;-69
2022/03/07 01:10:47;;;;;;;14.93;13.33;;;;;;;3.45;70.39;101664.25;2089460;28;20176;-69
2022/03/07 01:11:48;;;;;;;15.50;13.90;;;;;;;3.45;70.35;101662.28;2089702;28;20184;-69
2022/03/07 01:12:49;;;;;;;15.23;13.57;;;;;;;3.45;70.48;101650.53;2089344;28;20685;-70
2022/03/07 01:13:50;;;;;;;15.57;13.80;;;;;;;3.34;70.37;101655.00;2088949;28;20168;-69
2022/03/07 01:14:50;;;;;;;15.07;13.47;;;;;;;3.39;70.78;101654.72;2089311;28;20187;-69
2022/03/07 01:15:51;;;;;;;15.27;13.67;;;;;;;3.45;70.44;101656.03;2089430;28;20187;-69
2022/03/07 01:16:52;;;;;;;17.43;14.07;;;;;;;3.40;70.30;101654.38;2089337;28;20286;-69
2022/03/07 01:17:54;;;;;;;14.97;13.30;;;;;;;3.50;70.66;101648.28;2088692;28;20271;-70
2022/03/07 01:18:55;;;;;;;15.18;13.55;;;;;;;3.54;70.68;101651.91;2089508;28;20199;-70
2022/03/07 01:19:55;;;;;;;16.07;14.07;;;;;;;3.37;70.13;101651.53;2089525;28;20196;-69
2022/03/07 01:20:56;;;;;;;15.30;13.63;;;;;;;3.37;70.25;101646.06;2089440;28;20172;-70
2022/03/07 01:21:56;;;;;;;15.83;14.17;;;;;;;2.76;70.67;101557.47;2089475;28;20207;-69
2022/03/07 01:22:57;;;;;;;17.03;14.13;;;;;;;3.44;70.29;101643.47;2089397;28;20187;-69
2022/03/07 01:23:57;;;;;;;17.10;14.20;;;;;;;3.48;71.01;101647.88;2088967;28;20203;-69
2022/03/07 01:24:58;;;;;;;15.30;13.67;;;;;;;3.46;70.49;101644.72;2089442;28;20254;-69
2022/03/07 01:25:58;;;;;;;15.70;14.00;;;;;;;3.53;70.35;101649.53;2089077;28;20241;-70
2022/03/07 01:26:59;;;;;;;15.97;13.90;;;;;;;3.60;70.10;101657.91;2089198;28;20731;-69
2022/03/07 01:27:59;;;;;;;16.20;14.50;;;;;;;3.59;70.14;101645.38;2088578;28;20188;-69
2022/03/07 01:29:00;;;;;;;15.60;14.00;;;;;;;3.62;70.26;101645.44;2089299;28;20180;-69
2022/03/07 01:30:01;;;;;;;16.33;14.43;;;;;;;3.53;70.17;101664.03;2089273;28;20269;-69
2022/03/07 01:31:01;;;;;;;15.67;13.67;;;;;;;3.66;70.12;101648.25;2089412;28;20211;-70
2022/03/07 01:32:02;;;;;;;15.27;13.67;;;;;;;3.43;70.11;101600.75;2089513;28;20179;-70
2022/03/07 01:33:03;;;;;;;16.57;14.13;;;;;;;3.72;69.93;101652.28;2089223;28;20187;-69
2022/03/07 01:34:03;;;;;;;17.80;14.43;;;;;;;3.71;69.58;101651.50;2088905;28;20190;-69
2022/03/07 01:35:05;;;;;;;16.60;14.67;;;;;;;3.75;69.21;101644.13;2089350;28;20187;-69
2022/03/07 01:36:06;;;;;;;17.08;14.80;;;;;;;3.79;69.22;101650.47;2088865;28;20172;-69
2022/03/07 01:37:07;;;;;;;16.23;14.20;;;;;;;3.80;70.02;101643.81;2089090;28;20654;-69
2022/03/07 01:38:07;;;;;;;17.20;15.20;;;;;;;3.83;69.62;101650.53;2088172;28;20700;-69
2022/03/07 01:39:08;;;;;;;17.07;15.27;;;;;;;3.83;69.76;101645.84;2088725;28;20590;-69
2022/03/07 01:40:09;;;;;;;17.13;14.70;;;;;;;3.19;69.02;101538.06;2089346;28;20658;-69
2022/03/07 01:41:09;;;;;;;16.38;14.57;;;;;;;3.76;69.59;101632.03;2089085;28;20172;-69
2022/03/07 01:42:10;;;;;;;15.93;14.17;;;;;;;3.79;69.51;101646.94;2089317;28;20180;-69
2022/03/07 01:43:11;;;;;;;16.47;14.67;;;;;;;3.75;69.42;101644.13;2088479;28;20200;-69
2022/03/07 01:44:20;;;;;;;16.60;14.57;;;;;;;3.78;69.53;101648.88;2088244;28;20194;-69
2022/03/07 01:45:20;;;;;;;15.70;14.10;;;;;;;3.86;68.67;101645.13;2089194;28;20173;-69
2022/03/07 01:46:21;;;;;;;16.03;14.27;;;;;;;3.85;69.05;101632.56;2088890;28;20250;-70
2022/03/07 01:47:23;;;;;;;16.23;14.53;;;;;;;3.91;69.11;101639.34;2089028;28;20246;-69
2022/03/07 01:48:24;;;;;;;17.10;14.82;;;;;;;3.28;68.79;101558.59;2088836;28;20184;-69
2022/03/07 01:49:25;;;;;;;15.10;13.50;;;;;;;3.85;68.75;101653.72;2088556;28;20180;-69
2022/03/07 01:50:26;;;;;;;15.80;13.87;;;;;;;3.89;69.09;101635.38;2088588;28;20219;-69
2022/03/07 01:51:27;;;;;;;15.20;13.63;;;;;;;3.97;68.58;101637.09;2089017;28;20235;-70
2022/03/07 01:52:27;;;;;;;16.27;14.57;;;;;;;3.99;68.82;101635.59;2089307;28;20172;-69
2022/03/07 01:53:28;;;;;;;15.07;13.43;;;;;;;3.35;68.93;101523.16;2089228;28;20605;-69
2022/03/07 01:54:29;;;;;;;15.33;13.73;;;;;;;4.00;68.71;101631.69;2088711;28;20683;-69
2022/03/07 01:55:29;;;;;;;15.13;13.60;;;;;;;3.13;69.22;101485.50;2089170;28;20693;-69
2022/03/07 01:56:30;;;;;;;15.50;13.93;;;;;;;3.86;68.71;101600.47;2088682;28;20239;-69
2022/03/07 01:57:30;;;;;;;15.57;13.37;;;;;;;3.96;68.26;101630.03;2088447;28;20188;-69
2022/03/07 01:58:31;;;;;;;16.07;14.37;;;;;;;3.96;68.75;101632.78;2089134;28;20559;-69
2022/03/07 01:59:37;;;;;;;15.20;13.60;;;;;;;3.54;68.80;101574.41;2089103;28;20621;-69
2022/03/07 02:00:39;;;;;;;15.75;14.00;;;;;;;3.72;69.30;101605.66;2089155;28;20163;-69
2022/03/07 02:01:40;;;;;;;16.70;14.70;;;;;;;3.56;68.50;101581.09;2089170;28;20645;-69
2022/03/07 02:02:42;;;;;;;16.23;14.48;;;;;;;3.90;69.15;101628.75;2089062;28;20719;-69
2022/03/07 02:03:43;;;;;;;17.15;15.32;;;;;;;3.92;68.42;101629.97;2088760;28;20177;-69
2022/03/07 02:04:43;;;;;;;15.13;13.57;;;;;;;3.93;68.52;101628.00;2089037;28;20288;-70
2022/03/07 02:05:48;;;;;;;17.20;15.17;;;;;;;3.80;69.34;101607.41;2089186;28;20191;-69
2022/03/07 02:06:49;;;;;;;15.68;13.95;;;;;;;3.83;68.89;101628.59;2088529;28;20749;-69
2022/03/07 02:07:50;;;;;;;17.30;15.50;;;;;;;3.65;68.80;101602.81;2088644;28;20267;-69
2022/03/07 02:08:52;;;;;;;16.58;14.77;;;;;;;3.76;69.32;101625.72;2088979;28;20561;-69
2022/03/07 02:09:54;;;;;;;17.77;15.10;;;;;;;2.74;69.52;101481.19;2088379;28;20575;-69
2022/03/07 02:10:55;;;;;;;17.55;14.80;;;;;;;3.36;69.47;101589.69;2088491;28;20270;-69
2022/03/07 02:11:55;;;;;;;17.40;15.43;;;;;;;3.81;69.85;101620.75;2089059;28;20199;-69
2022/03/07 02:12:56;;;;;;;16.43;14.13;;;;;;;3.47;69.53;101586.00;2089007;28;20211;-69
2022/03/07 02:13:56;;;;;;;18.07;15.30;;;;;;;3.00;69.06;101530.63;2088702;28;20207;-69
2022/03/07 02:14:57;;;;;;;17.57;14.93;;;;;;;3.71;69.48;101629.56;2088970;28;20238;-69
2022/03/07 02:15:57;;;;;;;17.90;15.80;;;;;;;3.58;69.48;101608.13;2088785;28;20335;-69
2022/03/07 02:16:58;;;;;;;17.20;15.17;;;;;;;3.01;69.38;101517.72;2088992;28;20280;-69
2022/03/07 02:17:58;;;;;;;17.23;14.07;;;;;;;3.76;69.81;101636.69;2088246;28;20192;-69
2022/03/07 02:18:59;;;;;;;17.33;14.63;;;;;;;3.57;69.48;101592.84;2088950;28;20184;-69
2022/03/07 02:19:59;;;;;;;16.87;14.57;;;;;;;3.78;69.23;101624.22;2088454;28;20184;-69
2022/03/07 02:21:07;;;;;;;16.33;14.27;;;;;;;3.82;68.33;101627.00;2088231;28;20180;-69
2022/03/07 02:22:07;;;;;;;16.50;14.50;;;;;;;3.86;68.97;101627.88;2089184;28;20251;-69
2022/03/07 02:23:08;;;;;;;16.13;14.27;;;;;;;3.63;69.12;101596.88;2088964;28;20211;-69
2022/03/07 02:24:09;;;;;;;15.85;14.10;;;;;;;3.44;69.15;101564.78;2088458;28;20266;-69
2022/03/07 02:25:09;;;;;;;16.67;14.83;;;;;;;3.74;69.54;101622.56;2089015;28;20234;-69
2022/03/07 02:26:15;;;;;;;16.07;14.37;;;;;;;3.81;69.56;101631.72;2088498;28;20208;-69
2022/03/07 02:27:18;;;;;;;16.55;14.75;;;;;;;3.82;69.50;101633.31;2088763;28;20662;-69
2022/03/07 02:28:18;;;;;;;16.55;14.27;;;;;;;3.26;69.20;101541.75;2088561;28;20191;-69
2022/03/07 02:29:19;;;;;;;17.50;15.40;;;;;;;3.82;69.64;101627.81;2088963;28;20180;-69
2022/03/07 02:30:19;;;;;;;16.57;14.57;;;;;;;3.84;69.48;101632.94;2088945;28;20193;-69
2022/03/07 02:31:21;;;;;;;17.57;14.70;;;;;;;3.89;69.60;101630.69;2088805;28;20181;-69
2022/03/07 02:32:22;;;;;;;17.20;15.40;;;;;;;3.89;69.14;101635.38;2089009;28;20645;-69
2022/03/07 02:33:22;;;;;;;16.95;14.68;;;;;;;3.80;69.48;101616.41;2088724;28;20564;-69
2022/03/07 02:34:23;;;;;;;17.60;15.70;;;;;;;3.83;69.38;101634.88;2088579;28;20203;-69
2022/03/07 02:35:24;;;;;;;16.60;14.87;;;;;;;3.92;69.25;101635.47;2088987;28;20203;-70
2022/03/07 02:36:24;;;;;;;18.47;15.57;;;;;;;2.69;68.69;101434.97;2088596;28;20461;-69
2022/03/07 02:37:25;;;;;;;18.17;15.17;;;;;;;3.84;68.88;101650.19;2088699;28;20188;-69
2022/03/07 02:38:25;;;;;;;17.17;15.33;;;;;;;3.66;68.90;101593.41;2088626;28;20230;-70
2022/03/07 02:39:26;;;;;;;16.77;14.87;;;;;;;3.98;68.57;101642.22;2088920;28;20211;-69
2022/03/07 02:40:26;;;;;;;16.90;15.07;;;;;;;3.75;68.74;101596.72;2089037;28;20649;-69
2022/03/07 02:41:27;;;;;;;17.43;15.10;;;;;;;2.60;69.16;101417.16;2088919;28;20243;-69
2022/03/07 02:42:27;;;;;;;17.13;15.13;;;;;;;3.85;69.05;101615.34;2088929;28;20180;-69
2022/03/07 02:43:28;;;;;;;17.33;15.43;;;;;;;3.94;68.82;101632.31;2088992;28;20698;-69
2022/03/07 02:44:28;;;;;;;17.00;14.77;;;;;;;4.00;68.85;101625.41;2088445;28;20251;-70
2022/03/07 02:45:29;;;;;;;16.57;14.83;;;;;;;3.98;68.78;101620.28;2088773;28;20216;-69
2022/03/07 02:46:29;;;;;;;16.67;14.97;;;;;;;4.12;68.23;101638.94;2088534;28;20204;-69
2022/03/07 02:47:30;;;;;;;16.93;15.07;;;;;;;4.02;68.29;101632.13;2088336;28;20274;-70
2022/03/07 02:48:31;;;;;;;16.37;14.37;;;;;;;3.94;68.83;101627.66;2088806;28;20184;-70
2022/03/07 02:49:32;;;;;;;18.50;15.23;;;;;;;4.03;68.86;101650.16;2088935;28;20183;-69
2022/03/07 02:50:33;;;;;;;16.95;15.05;;;;;;;4.01;68.94;101649.72;2088875;28;20179;-69
2022/03/07 02:51:34;;;;;;;17.20;14.70;;;;;;;4.02;68.31;101648.56;2088010;28;20778;-69
2022/03/07 02:52:35;;;;;;;18.40;15.15;;;;;;;4.08;68.80;101652.59;2088208;28;20205;-69
2022/03/07 02:53:35;;;;;;;17.43;15.53;;;;;;;4.08;68.67;101660.84;2088751;28;20186;-69
2022/03/07 02:54:37;;;;;;;15.87;14.27;;;;;;;4.10;69.12;101649.50;2087733;28;20309;-69
2022/03/07 02:55:38;;;;;;;16.75;15.05;;;;;;;3.41;68.99;101559.25;2088348;28;20186;-69
2022/03/07 02:56:39;;;;;;;16.67;14.87;;;;;;;4.06;68.58;101656.88;2088571;28;20188;-69
2022/03/07 02:57:39;;;;;;;17.40;15.33;;;;;;;4.00;69.09;101644.63;2088194;28;20183;-69
2022/03/07 02:58:40;;;;;;;18.97;14.97;;;;;;;3.99;68.41;101643.00;2088954;28;20714;-70
2022/03/07 02:59:40;;;;;;;17.17;15.10;;;;;;;4.02;68.38;101658.75;2088855;28;20655;-69
2022/03/07 03:00:41;;;;;;;18.73;15.83;;;;;;;3.98;68.69;101639.47;2088679;28;20178;-69
2022/03/07 03:01:43;;;;;;;16.63;14.83;;;;;;;3.96;68.53;101638.25;2088577;28;20174;-70
2022/03/07 03:02:44;;;;;;;15.93;14.23;;;;;;;3.57;68.46;101579.94;2087995;28;20672;-69
2022/03/07 03:03:44;;;;;;;17.67;15.47;;;;;;;3.97;68.37;101642.59;2087838;28;20586;-69
2022/03/07 03:04:45;;;;;;;16.67;14.87;;;;;;;3.27;68.32;101537.84;2088782;28;20190;-69
2022/03/07 03:05:45;;;;;;;15.73;14.07;;;;;;;3.95;69.03;101637.47;2089005;28;20181;-69
2022/03/07 03:06:46;;;;;;;16.63;14.83;;;;;;;3.94;68.92;101640.56;2088159;28;20285;-70
2022/03/07 03:07:47;;;;;;;16.77;14.50;;;;;;;3.92;68.63;101643.69;2088308;28;20511;-69
2022/03/07 03:08:48;;;;;;;16.95;14.82;;;;;;;3.92;69.34;101640.13;2087936;28;20274;-69
2022/03/07 03:09:48;;;;;;;17.23;15.37;;;;;;;3.92;69.20;101640.13;2088339;28;20253;-69
2022/03/07 03:10:50;;;;;;;16.67;14.57;;;;;;;3.91;68.68;101644.81;2088812;28;20292;-69
2022/03/07 03:11:51;;;;;;;17.08;14.68;;;;;;;3.92;69.01;101646.44;2088875;28;20194;-69
2022/03/07 03:12:52;;;;;;;17.17;15.30;;;;;;;3.86;69.30;101642.38;2088709;28;20644;-69
2022/03/07 03:13:52;;;;;;;17.58;14.80;;;;;;;3.91;69.30;101655.00;2088200;28;20172;-69
2022/03/07 03:14:53;;;;;;;17.20;15.37;;;;;;;3.28;68.66;101553.13;2088856;28;20176;-69
2022/03/07 03:15:55;;;;;;;17.13;15.32;;;;;;;3.93;68.93;101650.75;2087731;28;20192;-69
2022/03/07 03:16:55;;;;;;;17.63;15.13;;;;;;;3.92;69.34;101642.88;2088114;28;20588;-71
2022/03/07 03:17:56;;;;;;;16.17;14.13;;;;;;;3.91;68.81;101650.31;2088264;28;20234;-69
2022/03/07 03:18:56;;;;;;;16.73;14.03;;;;;;;3.92;68.84;101646.44;2090167;28;20752;-69
2022/03/07 03:19:57;;;;;;;15.77;14.07;;;;;;;2.99;68.38;101531.78;2090511;28;20184;-69
2022/03/07 03:20:58;;;;;;;16.40;14.50;;;;;;;3.65;68.95;101660.38;2090261;28;20632;-69
2022/03/07 03:21:58;;;;;;;16.92;14.43;;;;;;;3.53;69.04;101636.63;2090455;28;20338;-69
2022/03/07 03:22:59;;;;;;;17.10;13.53;;;;;;;3.47;68.60;101629.03;2089594;28;20192;-69
2022/03/07 03:23:59;;;;;;;16.17;14.43;;;;;;;3.52;68.64;101637.78;2089258;28;20622;-69
2022/03/07 03:25:00;;;;;;;16.30;13.40;;;;;;;3.53;69.53;101647.59;2090331;28;20286;-70
2022/03/07 03:26:00;;;;;;;15.50;13.80;;;;;;;2.69;69.55;101533.47;2089940;28;20192;-69
2022/03/07 03:27:01;;;;;;;15.43;13.80;;;;;;;2.89;69.66;101554.28;2090275;28;20184;-69
2022/03/07 03:28:01;;;;;;;15.60;13.83;;;;;;;2.86;69.60;101578.81;2089639;28;20208;-69
2022/03/07 03:29:02;;;;;;;16.10;14.40;;;;;;;3.59;69.71;101648.09;2090289;28;20192;-69
2022/03/07 03:30:07;;;;;;;16.63;14.32;;;;;;;3.62;69.76;101645.44;2090204;28;20184;-69
2022/03/07 03:31:11;;;;;;;16.15;14.13;;;;;;;2.58;69.49;101476.94;2090270;28;20180;-69
2022/03/07 03:32:11;;;;;;;15.70;13.82;;;;;;;3.64;69.81;101645.84;2089645;28;20184;-69
2022/03/07 03:33:12;;;;;;;15.70;13.90;;;;;;;3.47;70.14;101627.09;2089538;28;20181;-69
2022/03/07 03:34:13;;;;;;;16.13;14.10;;;;;;;2.90;69.38;101530.41;2089953;28;20264;-69
2022/03/07 03:35:13;;;;;;;15.07;13.40;;;;;;;3.59;69.46;101642.63;2090286;28;20169;-69
2022/03/07 03:36:14;;;;;;;17.33;15.23;;;;;;;3.58;69.68;101643.75;2089977;28;20548;-69
2022/03/07 03:37:14;;;;;;;18.10;14.50;;;;;;;3.56;69.45;101643.34;2089826;28;20204;-69
2022/03/07 03:38:15;;;;;;;17.17;15.37;;;;;;;3.59;69.32;101648.88;2089825;28;20698;-69
2022/03/07 03:39:15;;;;;;;18.10;15.50;;;;;;;2.63;69.06;101506.75;2090256;28;20180;-69
2022/03/07 03:40:16;;;;;;;17.47;15.53;;;;;;;3.62;69.47;101650.91;2090406;28;20191;-69
2022/03/07 03:41:16;;;;;;;16.87;15.00;;;;;;;3.62;69.36;101648.16;2090175;28;20230;-69
2022/03/07 03:42:17;;;;;;;18.17;15.07;;;;;;;3.66;69.59;101651.78;2090143;28;20173;-69
2022/03/07 03:43:17;;;;;;;18.30;15.83;;;;;;;3.69;69.70;101653.00;2090228;28;20172;-69
2022/03/07 03:44:19;;;;;;;18.40;15.73;;;;;;;3.68;69.29;101649.47;2089763;28;20571;-69
2022/03/07 03:45:19;;;;;;;19.85;15.85;;;;;;;3.73;69.49;101651.09;2090167;28;20176;-69
2022/03/07 03:46:20;;;;;;;18.93;15.73;;;;;;;3.74;69.57;101648.00;2089734;28;20196;-69
2022/03/07 03:47:21;;;;;;;19.97;17.30;;;;;;;3.48;69.60;101612.25;2090002;28;20177;-69
2022/03/07 03:48:21;;;;;;;18.20;16.13;;;;;;;2.95;69.38;101530.94;2089716;28;20204;-69
2022/03/07 03:49:22;;;;;;;20.07;16.17;;;;;;;3.75;69.58;101646.06;2090080;28;20256;-69
2022/03/07 03:50:22;;;;;;;16.77;14.97;;;;;;;3.75;69.17;101648.81;2090188;28;20183;-69
2022/03/07 03:51:23;;;;;;;16.63;14.90;;;;;;;3.53;69.24;101609.22;2089750;28;20281;-70
2022/03/07 03:52:24;;;;;;;16.73;14.90;;;;;;;3.24;68.28;101565.16;2090339;28;20261;-69
2022/03/07 03:53:24;;;;;;;15.85;14.15;;;;;;;3.74;69.15;101653.50;2090082;28;20215;-70
2022/03/07 03:54:25;;;;;;;15.67;13.87;;;;;;;3.22;69.13;101573.75;2089575;28;20181;-69
2022/03/07 03:55:25;;;;;;;17.57;14.63;;;;;;;3.71;69.14;101647.94;2090169;28;20183;-69
2022/03/07 03:56:26;;;;;;;16.70;14.60;;;;;;;3.75;68.79;101655.06;2089950;28;20607;-69
2022/03/07 03:57:27;;;;;;;16.83;14.50;;;;;;;3.78;69.07;101654.38;2089618;28;20232;-69
2022/03/07 03:58:27;;;;;;;15.17;13.57;;;;;;;3.77;68.79;101646.50;2089909;28;20191;-70
2022/03/07 03:59:28;;;;;;;16.20;13.57;;;;;;;3.70;68.87;101652.63;2090015;28;20176;-69
2022/03/07 04:00:28;;;;;;;16.37;14.00;;;;;;;3.74;68.89;101658.22;2090088;28;20681;-69
2022/03/07 04:01:29;;;;;;;16.50;13.93;;;;;;;3.79;69.05;101655.94;2090009;28;20569;-69
2022/03/07 04:02:29;;;;;;;16.67;14.67;;;;;;;3.78;69.06;101659.84;2090042;28;20226;-69
2022/03/07 04:03:30;;;;;;;16.53;14.33;;;;;;;3.75;69.40;101655.06;2089962;28;20177;-70
2022/03/07 04:04:30;;;;;;;16.90;14.20;;;;;;;3.81;69.19;101656.41;2089641;28;20608;-69
2022/03/07 04:05:31;;;;;;;16.00;14.03;;;;;;;3.71;69.43;101635.06;2090044;28;20180;-69
2022/03/07 04:06:31;;;;;;;16.77;14.83;;;;;;;3.85;69.24;101657.25;2089703;28;20200;-69
2022/03/07 04:07:32;;;;;;;15.93;14.23;;;;;;;3.81;68.79;101663.81;2089471;28;20631;-69
2022/03/07 04:08:40;;;;;;;16.57;14.77;;;;;;;3.59;69.37;101637.91;2090102;28;20263;-70
2022/03/07 04:09:41;;;;;;;16.83;14.63;;;;;;;3.30;69.03;101582.91;2090137;28;20171;-69
2022/03/07 04:10:41;;;;;;;16.43;14.50;;;;;;;3.80;69.18;101654.78;2089917;28;20187;-69
2022/03/07 04:11:42;;;;;;;16.37;14.67;;;;;;;3.61;69.13;101624.66;2090119;28;20184;-69
2022/03/07 04:12:43;;;;;;;15.38;13.75;;;;;;;3.43;68.91;101590.63;2089690;28;20173;-69
2022/03/07 04:13:44;;;;;;;15.83;14.13;;;;;;;3.80;69.45;101654.00;2089457;28;20204;-70
2022/03/07 04:14:44;;;;;;;16.50;14.63;;;;;;;3.80;69.30;101652.03;2089972;28;20695;-69
2022/03/07 04:15:45;;;;;;;16.57;14.80;;;;;;;3.82;68.84;101654.44;2090054;28;20648;-69
2022/03/07 04:16:45;;;;;;;16.60;14.43;;;;;;;3.80;68.74;101654.00;2089553;28;20677;-69
2022/03/07 04:17:46;;;;;;;16.77;14.97;;;;;;;3.80;68.72;101652.03;2089368;28;20626;-69
2022/03/07 04:18:46;;;;;;;16.30;14.13;;;;;;;3.79;68.47;101655.19;2089877;28;20176;-69
2022/03/07 04:19:47;;;;;;;17.33;14.90;;;;;;;3.77;68.80;101652.78;2090050;28;20181;-69
2022/03/07 04:20:47;;;;;;;16.67;14.63;;;;;;;3.65;68.72;101627.47;2089681;28;20267;-69
2022/03/07 04:21:48;;;;;;;16.53;14.40;;;;;;;3.82;68.68;101648.94;2090109;28;20451;-69
2022/03/07 04:22:48;;;;;;;15.40;13.70;;;;;;;3.80;69.06;101649.31;2089859;28;20773;-69
2022/03/07 04:23:49;;;;;;;16.90;15.10;;;;;;;3.82;69.26;101654.44;2089564;28;20724;-69
2022/03/07 04:24:49;;;;;;;17.33;15.10;;;;;;;3.33;69.17;101561.06;2089743;28;20188;-69
2022/03/07 04:25:50;;;;;;;16.60;14.90;;;;;;;3.63;68.61;101624.28;2089975;28;20180;-69
2022/03/07 04:26:50;;;;;;;16.63;14.83;;;;;;;3.58;69.26;101621.81;2089297;28;20224;-69
2022/03/07 04:27:51;;;;;;;16.60;14.80;;;;;;;3.59;68.60;101648.88;2089250;28;20859;-69
2022/03/07 04:28:52;;;;;;;18.33;14.80;;;;;;;2.80;69.14;101544.66;2089930;28;20180;-69
2022/03/07 04:29:54;;;;;;;17.38;15.02;;;;;;;3.39;69.74;101650.03;2089600;28;20191;-69
2022/03/07 04:30:55;;;;;;;16.98;15.02;;;;;;;3.40;69.09;101650.81;2089744;28;20191;-69
2022/03/07 04:31:55;;;;;;;17.20;15.03;;;;;;;2.82;70.00;101565.03;2089933;28;20204;-69
2022/03/07 04:32:56;;;;;;;18.07;16.17;;;;;;;3.18;70.46;101646.81;2089052;28;20274;-69
2022/03/07 04:33:56;;;;;;;17.47;15.67;;;;;;;3.29;70.52;101641.59;2088513;28;20239;-69
2022/03/07 04:34:57;;;;;;;17.20;15.23;;;;;;;3.39;70.71;101641.03;2089890;28;20585;-69
2022/03/07 04:35:58;;;;;;;18.85;16.25;;;;;;;3.48;70.82;101641.59;2089567;28;20188;-69
2022/03/07 04:36:58;;;;;;;17.10;15.30;;;;;;;3.41;69.67;101635.97;2089838;28;20682;-69
2022/03/07 04:38:00;;;;;;;18.10;15.73;;;;;;;3.20;69.78;101576.06;2089181;28;20195;-69
2022/03/07 04:39:02;;;;;;;19.55;15.90;;;;;;;3.57;69.91;101650.41;2089763;28;20191;-69
2022/03/07 04:40:03;;;;;;;17.92;15.85;;;;;;;3.59;70.37;101646.13;2089096;28;20184;-69